createdAt,value
2018-02-11T00:02:26.441Z,7.60
2018-02-11T00:07:29.403Z,11.20
2018-02-11T00:09:57.788Z,8.93
2018-02-11T00:12:26.132Z,10.40
2018-02-11T00:14:55.244Z,13.73
2018-02-11T00:17:24.358Z,6.40
2018-02-11T00:19:52.725Z,10.20
2018-02-11T00:22:21.412Z,5.33
2018-02-11T00:24:49.760Z,6.00
2018-02-11T00:27:18.096Z,4.33
2018-02-11T00:29:46.423Z,5.60
2018-02-11T00:32:15.502Z,6.60
2018-02-11T00:34:43.845Z,8.03
2018-02-11T00:37:12.186Z,6.77
2018-02-11T00:39:40.635Z,5.23
2018-02-11T00:42:09.002Z,4.00
2018-02-11T00:44:37.428Z,4.30
2018-02-11T00:47:05.827Z,6.67
2018-02-11T00:49:35.335Z,10.47
2018-02-11T00:52:03.939Z,10.20
2018-02-11T00:54:32.407Z,10.33
2018-02-11T00:57:00.857Z,6.27
2018-02-11T00:59:29.169Z,3.53
2018-02-11T01:01:58.262Z,9.60
2018-02-11T01:04:26.570Z,5.23
2018-02-11T01:06:55.664Z,4.73
2018-02-11T01:09:24.840Z,5.47
2018-02-11T01:11:53.182Z,6.80
2018-02-11T01:14:21.506Z,6.77
2018-02-11T01:16:49.836Z,3.10
2018-02-11T01:19:18.195Z,5.10
2018-02-11T01:21:46.587Z,3.87
2018-02-11T01:24:14.903Z,5.33
2018-02-11T01:26:43.235Z,3.20
2018-02-11T01:29:11.577Z,6.23
2018-02-11T01:31:39.914Z,3.03
2018-02-11T01:34:09.110Z,3.80
2018-02-11T01:36:38.259Z,4.23
2018-02-11T01:39:07.479Z,8.20
2018-02-11T01:41:36.102Z,2.10
2018-02-11T01:44:04.534Z,6.60
2018-02-11T01:46:33.738Z,4.67
2018-02-11T01:49:02.186Z,6.80
2018-02-11T01:51:30.523Z,10.63
2018-02-11T01:53:59.613Z,4.43
2018-02-11T01:56:27.956Z,5.17
2018-02-11T01:58:56.388Z,5.53
2018-02-11T02:01:24.748Z,7.10
2018-02-11T02:03:53.142Z,11.33
2018-02-11T02:06:21.485Z,12.87
2018-02-11T02:08:50.213Z,4.13
2018-02-11T02:11:18.503Z,7.50
2018-02-11T02:13:46.844Z,5.00
2018-02-11T02:16:15.950Z,4.37
2018-02-11T02:18:44.356Z,5.80
2018-02-11T02:21:12.759Z,2.90
2018-02-11T02:23:41.091Z,6.93
2018-02-11T02:26:09.482Z,6.50
2018-02-11T02:28:37.825Z,5.20
2018-02-11T02:31:06.313Z,4.50
2018-02-11T02:33:34.745Z,6.00
2018-02-11T02:36:03.113Z,2.37
2018-02-11T02:38:32.225Z,9.43
2018-02-11T02:41:01.934Z,4.57
2018-02-11T02:43:30.302Z,10.07
2018-02-11T02:45:58.734Z,7.30
2018-02-11T02:48:27.839Z,4.73
2018-02-11T02:50:56.934Z,7.60
2018-02-11T02:53:25.274Z,2.43
2018-02-11T02:55:53.629Z,3.67
2018-02-11T02:58:22.767Z,3.67
2018-02-11T03:00:51.110Z,3.63
2018-02-11T03:03:19.537Z,9.50
2018-02-11T03:05:47.869Z,3.03
2018-02-11T03:08:16.167Z,2.60
2018-02-11T03:10:44.535Z,5.83
2018-02-11T03:13:12.861Z,3.67
2018-02-11T03:15:41.224Z,2.83
2018-02-11T03:18:09.604Z,5.23
2018-02-11T03:20:37.937Z,3.80
2018-02-11T03:23:06.303Z,4.10
2018-02-11T03:25:34.791Z,2.80
2018-02-11T03:28:03.208Z,5.30
2018-02-11T03:30:31.606Z,2.07
2018-02-11T03:33:00.024Z,3.83
2018-02-11T03:35:28.365Z,6.07
2018-02-11T03:37:56.710Z,9.93
2018-02-11T03:40:25.777Z,3.27
2018-02-11T03:42:54.149Z,6.70
2018-02-11T03:45:22.516Z,6.63
2018-02-11T03:47:50.863Z,8.67
2018-02-11T03:50:19.206Z,6.97
2018-02-11T03:52:47.514Z,2.83
2018-02-11T03:55:15.881Z,4.93
2018-02-11T03:57:44.195Z,5.70
2018-02-11T04:00:35.016Z,4.70
2018-02-11T04:03:03.678Z,3.53
2018-02-11T04:05:32.885Z,2.73
2018-02-11T04:08:02.009Z,6.80
2018-02-11T04:10:30.379Z,5.57
2018-02-11T04:12:58.746Z,6.80
2018-02-11T04:15:27.079Z,8.07
2018-02-11T04:17:55.576Z,5.50
2018-02-11T04:20:23.962Z,3.17
2018-02-11T04:22:52.297Z,2.93
2018-02-11T04:25:20.705Z,6.10
2018-02-11T04:27:49.045Z,5.63
2018-02-11T04:30:17.437Z,4.67
2018-02-11T04:32:45.750Z,4.80
2018-02-11T04:35:14.104Z,3.73
2018-02-11T04:37:43.209Z,7.73
2018-02-11T04:40:12.320Z,4.77
2018-02-11T04:42:41.494Z,11.83
2018-02-11T04:45:09.893Z,7.03
2018-02-11T04:47:38.256Z,7.83
2018-02-11T04:50:06.691Z,2.60
2018-02-11T04:52:35.817Z,5.40
2018-02-11T04:55:04.928Z,7.50
2018-02-11T04:57:34.087Z,5.00
2018-02-11T05:00:02.430Z,2.80
2018-02-11T05:02:31.720Z,2.87
2018-02-11T05:05:00.044Z,3.60
2018-02-11T05:07:28.346Z,3.93
2018-02-11T05:09:56.984Z,2.10
2018-02-11T05:12:25.296Z,3.07
2018-02-11T05:14:53.718Z,8.23
2018-02-11T05:17:22.027Z,2.23
2018-02-11T05:19:50.329Z,2.80
2018-02-11T05:22:18.634Z,3.00
2018-02-11T05:24:46.933Z,3.73
2018-02-11T05:27:15.234Z,3.43
2018-02-11T05:29:43.642Z,3.57
2018-02-11T05:32:12.717Z,3.47
2018-02-11T05:34:41.017Z,2.30
2018-02-11T05:37:09.347Z,2.70
2018-02-11T05:39:37.724Z,4.07
2018-02-11T05:42:06.933Z,2.23
2018-02-11T05:44:36.165Z,2.00
2018-02-11T05:47:04.828Z,1.87
2018-02-11T05:49:33.186Z,5.10
2018-02-11T05:52:01.555Z,39.17
2018-02-11T05:54:29.865Z,2.43
2018-02-11T05:56:58.170Z,3.20
2018-02-11T05:59:26.473Z,2.60
2018-02-11T06:01:54.888Z,3.60
2018-02-11T06:04:24.209Z,4.10
2018-02-11T06:06:53.335Z,3.00
2018-02-11T06:09:21.657Z,3.23
2018-02-11T06:11:50.037Z,2.47
2018-02-11T06:14:18.338Z,2.70
2018-02-11T06:16:46.722Z,5.43
2018-02-11T06:19:15.026Z,3.13
2018-02-11T06:21:43.337Z,1.57
2018-02-11T06:24:11.654Z,3.80
2018-02-11T06:26:42.566Z,1.93
2018-02-11T06:29:11.010Z,7.30
2018-02-11T06:31:39.458Z,1.50
2018-02-11T06:34:07.834Z,2.70
2018-02-11T06:36:36.271Z,1.63
2018-02-11T06:39:05.364Z,3.27
2018-02-11T06:41:33.776Z,1.40
2018-02-11T06:44:02.894Z,2.23
2018-02-11T06:46:31.310Z,2.43
2018-02-11T06:48:59.648Z,2.63
2018-02-11T06:51:28.080Z,3.53
2018-02-11T06:53:56.374Z,2.83
2018-02-11T06:56:24.679Z,2.17
2018-02-11T06:58:52.978Z,2.20
2018-02-11T07:01:21.277Z,1.97
2018-02-11T07:03:49.573Z,2.13
2018-02-11T07:06:17.890Z,5.10
2018-02-11T07:08:46.984Z,1.97
2018-02-11T07:11:15.317Z,3.37
2018-02-11T07:13:44.382Z,1.80
2018-02-11T07:16:12.694Z,2.27
2018-02-11T07:18:41.949Z,2.13
2018-02-11T07:21:10.252Z,2.70
2018-02-11T07:23:38.548Z,1.80
2018-02-11T07:26:06.874Z,1.60
2018-02-11T07:28:35.394Z,1.53
2018-02-11T07:31:03.812Z,2.30
2018-02-11T07:33:32.173Z,1.30
2018-02-11T07:36:01.156Z,1.03
2018-02-11T07:38:29.458Z,0.90
2018-02-11T07:40:58.541Z,1.03
2018-02-11T07:43:26.873Z,1.40
2018-02-11T07:45:55.349Z,0.80
2018-02-11T07:48:24.460Z,1.10
2018-02-11T07:50:53.546Z,1.40
2018-02-11T07:53:21.939Z,1.47
2018-02-11T07:55:50.285Z,0.90
2018-02-11T07:58:18.633Z,0.80
2018-02-11T08:00:47.704Z,0.73
2018-02-11T08:03:16.026Z,0.83
2018-02-11T08:05:44.487Z,1.03
2018-02-11T08:08:12.898Z,0.93
2018-02-11T08:10:41.238Z,0.80
2018-02-11T08:13:09.597Z,1.00
2018-02-11T08:15:37.932Z,0.77
2018-02-11T08:18:07.074Z,0.90
2018-02-11T08:20:35.439Z,1.53
2018-02-11T08:23:03.997Z,0.80
2018-02-11T08:25:33.169Z,0.80
2018-02-11T08:28:01.711Z,0.73
2018-02-11T08:30:30.078Z,0.80
2018-02-11T08:32:58.385Z,0.70
2018-02-11T08:35:27.487Z,2.57
2018-02-11T08:37:56.562Z,0.73
2018-02-11T08:40:24.867Z,0.50
2018-02-11T08:42:53.160Z,0.70
2018-02-11T08:45:21.489Z,0.70
2018-02-11T08:47:50.614Z,0.60
2018-02-11T08:50:18.955Z,0.87
2018-02-11T08:52:47.348Z,0.60
2018-02-11T08:55:16.909Z,1.70
2018-02-11T08:57:45.289Z,0.67
2018-02-11T09:00:13.936Z,1.13
2018-02-11T09:02:42.353Z,0.60
2018-02-11T09:05:11.535Z,0.70
2018-02-11T09:07:39.865Z,0.80
2018-02-11T09:10:08.954Z,0.60
2018-02-11T09:12:37.285Z,0.60
2018-02-11T09:15:06.502Z,1.50
2018-02-11T09:17:34.876Z,0.60
2018-02-11T09:20:03.304Z,0.40
2018-02-11T09:22:31.724Z,0.80
2018-02-11T09:25:00.035Z,0.60
2018-02-11T09:27:28.349Z,0.60
2018-02-11T09:29:57.415Z,0.70
2018-02-11T09:32:25.751Z,0.60
2018-02-11T09:34:54.171Z,0.50
2018-02-11T09:37:22.517Z,0.93
2018-02-11T09:39:51.754Z,0.50
2018-02-11T09:42:20.057Z,0.70
2018-02-11T09:44:48.515Z,0.50
2018-02-11T09:47:17.605Z,0.57
2018-02-11T09:49:45.918Z,0.50
2018-02-11T09:52:15.075Z,0.60
2018-02-11T09:54:43.370Z,0.53
2018-02-11T09:57:11.795Z,0.87
2018-02-11T09:59:40.126Z,1.57
2018-02-11T10:02:08.450Z,0.50
2018-02-11T10:04:36.851Z,0.43
2018-02-11T10:07:05.152Z,0.70
2018-02-11T10:09:34.282Z,0.50
2018-02-11T10:12:02.697Z,0.50
2018-02-11T10:14:31.055Z,0.60
2018-02-11T10:16:59.420Z,0.67
2018-02-11T10:19:27.724Z,1.60
2018-02-11T10:21:56.013Z,0.70
2018-02-11T10:24:24.323Z,0.50
2018-02-11T10:26:53.387Z,0.60
2018-02-11T10:29:21.686Z,0.70
2018-02-11T10:31:50.024Z,1.80
2018-02-11T10:34:19.085Z,1.10
2018-02-11T10:36:47.400Z,0.60
2018-02-11T10:39:15.695Z,1.90
2018-02-11T10:41:44.982Z,2.27
2018-02-11T10:44:13.282Z,0.70
2018-02-11T10:46:41.631Z,1.00
2018-02-11T10:49:09.943Z,2.33
2018-02-11T10:51:38.362Z,0.77
2018-02-11T10:54:06.712Z,0.80
2018-02-11T10:56:35.048Z,0.80
2018-02-11T10:59:03.374Z,1.30
2018-02-11T11:01:31.744Z,2.20
2018-02-11T11:04:00.259Z,0.70
2018-02-11T11:06:28.556Z,1.77
2018-02-11T11:08:56.874Z,1.10
2018-02-11T11:11:25.179Z,3.40
2018-02-11T11:13:53.482Z,1.23
2018-02-11T11:16:21.926Z,1.17
2018-02-11T11:18:50.247Z,1.63
2018-02-11T11:21:18.596Z,3.00
2018-02-11T11:23:46.992Z,1.43
2018-02-11T11:26:15.412Z,1.60
2018-02-11T11:28:43.702Z,5.90
2018-02-11T11:31:12.046Z,1.60
2018-02-11T11:33:41.118Z,1.00
2018-02-11T11:36:09.442Z,2.87
2018-02-11T11:38:38.568Z,1.00
2018-02-11T11:41:06.880Z,0.80
2018-02-11T11:43:35.230Z,1.23
2018-02-11T11:46:04.317Z,1.17
2018-02-11T11:48:32.728Z,2.20
2018-02-11T11:51:01.833Z,1.53
2018-02-11T11:53:30.943Z,1.93
2018-02-11T11:56:00.021Z,1.20
2018-02-11T11:58:28.334Z,2.00
2018-02-11T12:00:56.721Z,1.57
2018-02-11T12:03:25.017Z,7.20
2018-02-11T12:05:53.327Z,2.83
2018-02-11T12:08:22.462Z,1.50
2018-02-11T12:10:50.890Z,1.90
2018-02-11T12:13:19.188Z,2.93
2018-02-11T12:15:47.494Z,1.73
2018-02-11T12:18:16.652Z,1.00
2018-02-11T12:20:44.958Z,1.40
2018-02-11T12:23:13.254Z,1.33
2018-02-11T12:25:41.645Z,1.30
2018-02-11T12:28:09.958Z,0.80
2018-02-11T12:30:38.357Z,0.70
2018-02-11T12:33:06.700Z,2.00
2018-02-11T12:35:35.018Z,0.70
2018-02-11T12:38:03.352Z,0.60
2018-02-11T12:40:31.686Z,0.60
2018-02-11T12:43:00.001Z,0.60
2018-02-11T12:45:28.342Z,0.50
2018-02-11T12:47:56.722Z,0.50
2018-02-11T12:50:25.773Z,0.50
2018-02-11T12:52:54.068Z,0.50
2018-02-11T12:55:22.371Z,0.50
2018-02-11T12:57:50.697Z,0.50
2018-02-11T13:00:19.135Z,0.50
2018-02-11T13:02:47.455Z,0.37
2018-02-11T13:05:15.758Z,0.60
2018-02-11T13:07:44.830Z,2.07
2018-02-11T13:10:13.219Z,1.40
2018-02-11T13:12:41.535Z,2.30
2018-02-11T13:15:09.892Z,1.50
2018-02-11T13:17:38.279Z,7.60
2018-02-11T13:20:06.611Z,3.90
2018-02-11T13:22:35.702Z,4.20
2018-02-11T13:25:04.053Z,5.60
2018-02-11T13:27:33.146Z,7.37
2018-02-11T13:30:01.509Z,4.37
2018-02-11T13:32:29.872Z,5.13
2018-02-11T13:34:58.214Z,13.23
2018-02-11T13:37:27.309Z,7.23
2018-02-11T13:39:56.422Z,5.57
2018-02-11T13:42:25.483Z,6.90
2018-02-11T13:44:53.780Z,5.17
2018-02-11T13:47:22.177Z,6.80
2018-02-11T13:49:50.490Z,4.03
2018-02-11T13:52:19.628Z,3.30
2018-02-11T13:54:47.959Z,4.17
2018-02-11T13:57:16.266Z,3.90
2018-02-11T13:59:45.391Z,4.23
2018-02-11T14:02:13.774Z,4.20
2018-02-11T14:04:42.082Z,3.87
2018-02-11T14:07:11.172Z,3.30
2018-02-11T14:09:39.547Z,4.13
2018-02-11T14:12:07.912Z,5.80
2018-02-11T14:14:36.240Z,3.13
2018-02-11T14:17:04.554Z,4.03
2018-02-11T14:19:33.695Z,5.93
2018-02-11T14:22:02.085Z,5.37
2018-02-11T14:24:30.406Z,4.13
2018-02-11T14:26:58.720Z,5.97
2018-02-11T14:29:27.014Z,6.17
2018-02-11T14:31:55.325Z,4.27
2018-02-11T14:34:24.386Z,4.70
2018-02-11T14:36:52.762Z,7.13
2018-02-11T14:39:21.057Z,3.70
2018-02-11T14:41:49.394Z,6.90
2018-02-11T14:44:18.470Z,5.00
2018-02-11T14:46:46.845Z,6.03
2018-02-11T14:49:15.175Z,3.97
2018-02-11T14:51:43.482Z,3.87
2018-02-11T14:54:12.661Z,4.90
2018-02-11T14:56:40.991Z,7.97
2018-02-11T14:59:10.218Z,5.33
2018-02-11T15:01:38.632Z,3.67
2018-02-11T15:04:07.707Z,3.33
2018-02-11T15:06:37.967Z,2.50
2018-02-11T15:09:06.412Z,6.03
2018-02-11T15:11:34.864Z,3.63
2018-02-11T15:14:03.183Z,2.77
2018-02-11T15:16:31.686Z,3.10
2018-02-11T15:18:59.984Z,3.50
2018-02-11T15:21:29.078Z,3.30
2018-02-11T15:23:57.399Z,2.83
2018-02-11T15:26:26.459Z,6.07
2018-02-11T15:28:54.913Z,2.80
2018-02-11T15:31:23.210Z,2.50
2018-02-11T15:33:51.543Z,3.90
2018-02-11T15:36:21.567Z,2.70
2018-02-11T15:38:49.868Z,3.93
2018-02-11T15:41:18.165Z,4.30
2018-02-11T15:43:46.469Z,4.37
2018-02-11T15:46:15.611Z,6.17
2018-02-11T15:48:43.931Z,5.27
2018-02-11T15:51:12.236Z,2.17
2018-02-11T15:53:40.639Z,4.07
2018-02-11T15:56:08.982Z,12.37
2018-02-11T15:58:37.410Z,3.30
2018-02-11T16:01:05.728Z,11.53
2018-02-11T16:03:34.831Z,4.50
2018-02-11T16:06:03.926Z,3.97
2018-02-11T16:08:32.322Z,3.97
2018-02-11T16:11:01.449Z,2.63
2018-02-11T16:13:29.760Z,2.30
2018-02-11T16:15:58.140Z,3.13
2018-02-11T16:18:27.196Z,6.93
2018-02-11T16:20:55.521Z,2.23
2018-02-11T16:23:24.601Z,8.47
2018-02-11T16:25:52.898Z,5.27
2018-02-11T16:28:21.319Z,3.90
2018-02-11T16:30:50.386Z,3.67
2018-02-11T16:33:18.677Z,7.87
2018-02-11T16:35:46.990Z,9.03
2018-02-11T16:38:16.066Z,3.43
2018-02-11T16:40:47.106Z,4.10
2018-02-11T16:43:15.550Z,3.40
2018-02-11T16:45:43.929Z,8.73
2018-02-11T16:48:12.335Z,6.10
2018-02-11T16:50:40.675Z,5.47
2018-02-11T16:53:08.993Z,6.90
2018-02-11T16:55:37.373Z,8.73
2018-02-11T16:58:05.824Z,5.57
2018-02-11T17:00:35.080Z,12.50
2018-02-11T17:03:03.527Z,7.17
2018-02-11T17:05:32.702Z,7.33
2018-02-11T17:08:01.057Z,7.20
2018-02-11T17:10:29.721Z,11.10
2018-02-11T17:12:58.806Z,8.47
2018-02-11T17:15:27.118Z,8.13
2018-02-11T17:17:56.269Z,11.23
2018-02-11T17:20:24.611Z,4.97
2018-02-11T17:22:53.004Z,6.80
2018-02-11T17:25:21.418Z,5.00
2018-02-11T17:27:50.516Z,7.67
2018-02-11T17:30:19.636Z,11.60
2018-02-11T17:32:48.710Z,8.33
2018-02-11T17:35:17.168Z,5.67
2018-02-11T17:37:45.576Z,5.47
2018-02-11T17:40:13.883Z,7.03
2018-02-11T17:42:42.244Z,8.20
2018-02-11T17:45:10.639Z,6.70
2018-02-11T17:47:39.082Z,7.43
2018-02-11T17:50:08.235Z,6.60
2018-02-11T17:52:36.719Z,8.00
2018-02-11T17:55:05.144Z,12.67
2018-02-11T17:57:33.490Z,9.70
2018-02-11T18:00:01.950Z,5.50
2018-02-11T18:02:30.306Z,8.60
2018-02-11T18:04:58.674Z,5.90
2018-02-11T18:07:26.988Z,7.63
2018-02-11T18:09:55.401Z,9.90
2018-02-11T18:12:23.805Z,12.87
2018-02-11T18:14:52.121Z,5.30
2018-02-11T18:17:21.215Z,4.67
2018-02-11T18:19:49.566Z,19.67
2018-02-11T18:22:17.886Z,5.10
2018-02-11T18:24:46.195Z,10.93
2018-02-11T18:27:15.266Z,6.33
2018-02-11T18:29:43.677Z,5.80
2018-02-11T18:32:12.024Z,9.17
2018-02-11T18:34:40.366Z,5.37
2018-02-11T18:37:08.797Z,7.37
2018-02-11T18:39:37.104Z,13.10
2018-02-11T18:42:05.831Z,10.03
2018-02-11T18:44:34.278Z,10.13
2018-02-11T18:47:02.724Z,6.23
2018-02-11T18:49:31.229Z,4.97
2018-02-11T18:51:59.709Z,4.37
2018-02-11T18:54:28.080Z,5.80
2018-02-11T18:56:56.414Z,9.43
2018-02-11T18:59:25.630Z,11.97
2018-02-11T19:01:53.954Z,5.53
2018-02-11T19:04:22.283Z,11.50
2018-02-11T19:06:50.720Z,6.67
2018-02-11T19:09:19.053Z,8.53
2018-02-11T19:11:47.479Z,11.30
2018-02-11T19:14:15.862Z,7.97
2018-02-11T19:16:44.185Z,4.90
2018-02-11T19:19:12.541Z,6.30
2018-02-11T19:21:40.959Z,5.50
2018-02-11T19:24:10.127Z,5.30
2018-02-11T19:26:38.505Z,9.30
2018-02-11T19:29:06.874Z,8.50
2018-02-11T19:31:35.222Z,6.17
2018-02-11T19:34:04.019Z,10.03
2018-02-11T19:36:32.420Z,7.57
2018-02-11T19:39:00.835Z,7.10
2018-02-11T19:41:29.159Z,6.00
2018-02-11T19:43:57.464Z,9.87
2018-02-11T19:46:25.802Z,6.60
2018-02-11T19:48:54.871Z,4.70
2018-02-11T19:51:23.557Z,5.27
2018-02-11T19:53:51.856Z,6.07
2018-02-11T19:56:20.174Z,10.00
2018-02-11T19:58:48.470Z,8.17
2018-02-11T20:01:17.551Z,4.73
2018-02-11T20:03:45.900Z,4.60
2018-02-11T20:06:14.213Z,11.07
2018-02-11T20:08:42.542Z,5.50
2018-02-11T20:11:10.873Z,4.17
2018-02-11T20:13:39.233Z,5.57
2018-02-11T20:16:08.382Z,11.60
2018-02-11T20:18:36.788Z,7.97
2018-02-11T20:21:05.176Z,10.43
2018-02-11T20:23:33.617Z,5.70
2018-02-11T20:26:02.821Z,8.00
2018-02-11T20:28:31.248Z,5.37
2018-02-11T20:30:59.637Z,11.33
2018-02-11T20:33:28.019Z,6.20
2018-02-11T20:35:56.497Z,10.00
2018-02-11T20:38:25.585Z,11.17
2018-02-11T20:40:53.878Z,9.43
2018-02-11T20:43:22.236Z,9.53
2018-02-11T20:45:50.570Z,11.60
2018-02-11T20:48:19.350Z,9.20
2018-02-11T20:50:47.669Z,8.27
2018-02-11T20:53:15.966Z,8.67
2018-02-11T20:55:45.045Z,10.23
2018-02-11T20:58:13.372Z,12.17
2018-02-11T21:00:42.525Z,11.20
2018-02-11T21:03:10.844Z,10.33
2018-02-11T21:05:39.191Z,11.07
2018-02-11T21:08:07.525Z,11.70
2018-02-11T21:10:35.856Z,18.70
2018-02-11T21:13:04.299Z,12.33
2018-02-11T21:15:32.861Z,8.33
2018-02-11T21:18:01.283Z,11.80
2018-02-11T21:20:30.448Z,14.13
2018-02-11T21:22:58.762Z,13.07
2018-02-11T21:25:27.081Z,12.10
2018-02-11T21:27:55.419Z,10.90
2018-02-11T21:30:24.553Z,21.20
2018-02-11T21:32:52.865Z,11.93
2018-02-11T21:35:21.186Z,11.10
2018-02-11T21:37:49.490Z,15.57
2018-02-11T21:40:18.556Z,7.90
2018-02-11T21:42:46.916Z,8.83
2018-02-11T21:45:15.221Z,9.53
2018-02-11T21:47:43.534Z,8.13
2018-02-11T21:50:11.881Z,13.40
2018-02-11T21:52:40.294Z,11.67
2018-02-11T21:55:08.620Z,8.87
2018-02-11T21:57:37.129Z,9.20
2018-02-11T22:02:34.928Z,9.13
2018-02-11T22:05:03.291Z,8.60
2018-02-11T22:07:31.664Z,15.63
2018-02-11T22:09:59.989Z,10.87
2018-02-11T22:12:28.369Z,10.80
2018-02-11T22:14:56.676Z,11.43
2018-02-11T22:17:25.012Z,10.87
2018-02-11T22:19:53.335Z,12.13
2018-02-11T22:22:21.649Z,11.73
2018-02-11T22:24:50.170Z,10.80
2018-02-11T22:27:18.514Z,12.73
2018-02-11T22:29:46.827Z,10.73
2018-02-11T22:32:15.133Z,9.00
2018-02-11T22:34:44.215Z,8.87
2018-02-11T22:37:12.595Z,7.97
2018-02-11T22:39:40.906Z,7.13
2018-02-11T22:42:09.230Z,8.00
2018-02-11T22:44:37.695Z,8.77
2018-02-11T22:47:06.847Z,12.70
2018-02-11T22:49:35.216Z,6.93
2018-02-11T22:52:04.294Z,8.83
2018-02-11T22:54:32.712Z,18.10
2018-02-11T22:57:01.902Z,11.90
2018-02-11T22:59:30.209Z,6.83
2018-02-11T23:01:58.510Z,5.53
2018-02-11T23:04:27.618Z,10.13
2018-02-11T23:06:56.774Z,16.20
2018-02-11T23:09:25.096Z,9.77
2018-02-11T23:11:53.440Z,14.13
2018-02-11T23:14:21.777Z,8.90
2018-02-11T23:16:50.113Z,13.70
2018-02-11T23:19:18.573Z,13.07
2018-02-11T23:21:47.687Z,6.43
2018-02-11T23:24:16.772Z,10.63
2018-02-11T23:26:45.088Z,9.63
2018-02-11T23:29:14.160Z,7.10
2018-02-11T23:31:42.511Z,7.40
2018-02-11T23:34:10.822Z,8.10
2018-02-11T23:36:39.273Z,9.00
2018-02-11T23:39:07.619Z,7.50
2018-02-11T23:41:35.980Z,10.20
2018-02-11T23:44:04.354Z,6.70
2018-02-11T23:46:32.745Z,6.10
2018-02-11T23:49:01.118Z,7.27
2018-02-11T23:51:29.445Z,9.43
2018-02-11T23:53:57.754Z,6.97
2018-02-11T23:56:26.128Z,6.30
2018-02-11T23:58:54.518Z,6.00
